Time;durP1;ratioP1;P1;durP2;ratioP2;P2;SDS_P1;SDS_P2;PMS_P1;PMS_P2;Temp;Humidity;BMP_temperature;BMP_pressure;BME280_temperature;BME280_humidity;BME280_pressure;Samples;Min_cycle;Max_cycle;Signal;HPM_P1;HPM_P2
2023/08/07 00:00:45;;;;;;;4.80;2.42;;;16.10;99.90;;;;;;5102814;27;20043;-60
2023/08/07 00:03:11;;;;;;;5.35;1.70;;;16.10;99.90;;;;;;5122305;27;20134;-60
2023/08/07 00:05:37;;;;;;;3.85;1.65;;;16.00;99.90;;;;;;5099219;27;20043;-59
2023/08/07 00:08:03;;;;;;;4.45;1.92;;;15.90;99.90;;;;;;5120912;27;20076;-60
2023/08/07 00:10:29;;;;;;;5.18;2.00;;;15.90;99.90;;;;;;5119993;27;20035;-60
2023/08/07 00:12:55;;;;;;;5.07;2.28;;;15.90;99.90;;;;;;5105533;28;20035;-60
2023/08/07 00:15:21;;;;;;;6.72;2.50;;;15.90;99.90;;;;;;5120991;27;20047;-59
2023/08/07 00:17:47;;;;;;;6.38;1.90;;;15.90;99.90;;;;;;5108533;27;20046;-60
2023/08/07 00:20:12;;;;;;;11.07;3.13;;;15.90;99.90;;;;;;5104826;28;20152;-60
2023/08/07 00:22:38;;;;;;;12.45;3.60;;;15.90;99.90;;;;;;5124921;27;20060;-60
2023/08/07 00:25:04;;;;;;;12.88;3.50;;;15.90;99.90;;;;;;5121559;27;20043;-60
2023/08/07 00:27:30;;;;;;;14.48;2.88;;;15.90;99.90;;;;;;5124366;27;20070;-60
2023/08/07 00:29:56;;;;;;;10.35;2.50;;;15.90;99.90;;;;;;5122688;27;20078;-60
2023/08/07 00:32:22;;;;;;;12.13;3.00;;;15.90;99.90;;;;;;5123013;27;20412;-60
2023/08/07 00:34:48;;;;;;;11.95;3.78;;;15.90;99.90;;;;;;5117925;27;20188;-60
2023/08/07 00:37:13;;;;;;;14.98;4.05;;;15.90;99.90;;;;;;5122562;27;20058;-58
2023/08/07 00:39:39;;;;;;;17.17;3.65;;;15.80;99.90;;;;;;5094176;28;20035;-59
2023/08/07 00:42:05;;;;;;;14.32;3.20;;;15.80;99.90;;;;;;5104221;27;20577;-60
2023/08/07 00:44:31;;;;;;;16.67;3.05;;;15.80;99.90;;;;;;5100179;28;20407;-60
2023/08/07 00:46:57;;;;;;;14.32;2.97;;;15.80;99.90;;;;;;5118706;27;20051;-59
2023/08/07 00:49:23;;;;;;;13.15;2.83;;;15.80;99.90;;;;;;5076407;28;20069;-60
2023/08/07 00:51:48;;;;;;;11.45;3.22;;;15.80;99.90;;;;;;5090567;27;20047;-60
2023/08/07 00:54:19;;;;;;;12.00;2.40;;;15.70;99.90;;;;;;5098142;28;20043;-60
2023/08/07 00:56:45;;;;;;;10.20;2.72;;;15.70;99.90;;;;;;5116265;27;20118;-60
2023/08/07 00:59:13;;;;;;;9.38;2.35;;;15.60;99.90;;;;;;5117351;27;20047;-60
2023/08/07 01:01:39;;;;;;;8.45;2.25;;;15.60;99.90;;;;;;5120350;27;20118;-60
2023/08/07 01:04:05;;;;;;;13.68;3.20;;;15.50;99.90;;;;;;5100325;28;20192;-59
2023/08/07 01:06:30;;;;;;;11.43;2.47;;;15.50;99.90;;;;;;5120480;27;20039;-60
2023/08/07 01:08:57;;;;;;;10.95;2.47;;;15.50;99.90;;;;;;5102020;28;20135;-60
2023/08/07 01:11:35;;;;;;;12.60;3.13;;;15.40;99.90;;;;;;5125988;28;20039;-60
2023/08/07 01:14:35;;;;;;;15.88;3.15;;;15.40;99.90;;;;;;5119336;28;20047;-60
2023/08/07 01:17:07;;;;;;;14.15;2.63;;;15.40;99.90;;;;;;5073239;28;20200;-60
2023/08/07 01:19:35;;;;;;;13.30;2.88;;;15.40;99.90;;;;;;5116523;28;20039;-58
2023/08/07 01:22:10;;;;;;;14.77;3.50;;;15.40;99.90;;;;;;5121696;28;20080;-60
2023/08/07 01:24:37;;;;;;;8.55;2.28;;;15.40;99.90;;;;;;5102481;28;20043;-58
2023/08/07 01:27:18;;;;;;;13.10;2.70;;;15.30;99.90;;;;;;5099595;28;20499;-60
2023/08/07 01:29:56;;;;;;;9.38;2.50;;;15.30;99.90;;;;;;5095778;28;20510;-60
2023/08/07 01:32:30;;;;;;;12.02;2.95;;;15.30;99.90;;;;;;5121337;28;20031;-60
2023/08/07 01:34:56;;;;;;;;;;;15.20;99.90;;;;;;5119408;28;20035;-60
2023/08/07 01:37:23;;;;;;;12.18;2.47;;;15.20;99.90;;;;;;5092767;28;20310;-59
2023/08/07 01:39:51;;;;;;;10.65;2.70;;;15.20;99.90;;;;;;5120370;28;20050;-60
2023/08/07 01:42:17;;;;;;;11.18;2.42;;;15.20;99.90;;;;;;5092420;28;20494;-60
2023/08/07 01:44:42;;;;;;;12.40;3.15;;;15.20;99.90;;;;;;5119641;28;20123;-59
2023/08/07 01:47:08;;;;;;;14.65;3.08;;;15.20;99.90;;;;;;5101890;28;20063;-59
2023/08/07 01:49:34;;;;;;;16.05;4.03;;;15.20;99.90;;;;;;5093729;27;20047;-60
2023/08/07 01:52:00;;;;;;;13.68;3.30;;;15.20;99.90;;;;;;5100962;28;20474;-60
2023/08/07 01:54:25;;;;;;;10.00;3.40;;;15.20;99.90;;;;;;5097548;28;20386;-59
2023/08/07 01:56:51;;;;;;;12.05;2.83;;;15.20;99.90;;;;;;5124900;27;20067;-58
2023/08/07 01:59:17;;;;;;;15.73;3.30;;;15.10;99.90;;;;;;5124763;28;20031;-59
2023/08/07 02:01:42;;;;;;;10.48;3.10;;;15.00;99.90;;;;;;5090233;28;20077;-58
2023/08/07 02:04:08;;;;;;;14.18;3.45;;;15.00;99.90;;;;;;5094721;28;20040;-60
2023/08/07 02:06:34;;;;;;;12.18;3.10;;;15.00;99.90;;;;;;5113934;28;20038;-58
2023/08/07 02:08:59;;;;;;;13.77;2.95;;;15.10;99.90;;;;;;5118442;28;20068;-60
2023/08/07 02:11:25;;;;;;;9.10;2.58;;;15.00;99.90;;;;;;5112562;27;20103;-60
2023/08/07 02:13:51;;;;;;;14.00;4.00;;;15.00;99.90;;;;;;5083636;27;20773;-59
2023/08/07 02:16:16;;;;;;;13.32;2.65;;;15.00;99.90;;;;;;5126136;27;20084;-60
2023/08/07 02:18:42;;;;;;;10.07;2.55;;;15.00;99.90;;;;;;5095395;27;20047;-59
2023/08/07 02:21:08;;;;;;;12.55;3.65;;;15.00;99.90;;;;;;5094176;27;20051;-59
2023/08/07 02:23:34;;;;;;;13.38;3.28;;;15.00;99.90;;;;;;5115728;27;20040;-57
2023/08/07 02:25:59;;;;;;;13.40;3.42;;;14.90;99.90;;;;;;5074638;27;20043;-60
2023/08/07 02:28:25;;;;;;;15.05;3.45;;;14.90;99.90;;;;;;5122662;27;20031;-59
2023/08/07 02:30:53;;;;;;;15.18;2.92;;;14.90;99.90;;;;;;5103911;27;20031;-60
2023/08/07 02:33:19;;;;;;;18.77;4.20;;;14.80;99.90;;;;;;5125339;27;20062;-58
2023/08/07 02:35:45;;;;;;;12.90;3.22;;;14.90;99.90;;;;;;5126622;27;20039;-59
2023/08/07 02:38:11;;;;;;;10.75;3.03;;;14.90;99.90;;;;;;5098767;27;20477;-59
2023/08/07 02:40:37;;;;;;;17.55;3.47;;;14.90;99.90;;;;;;5110736;27;20078;-60
2023/08/07 02:43:03;;;;;;;16.05;3.72;;;15.00;99.90;;;;;;5099585;27;20448;-60
2023/08/07 02:45:29;;;;;;;11.43;3.13;;;15.10;99.90;;;;;;5100256;28;20053;-60
2023/08/07 02:47:54;;;;;;;13.98;3.22;;;15.10;99.90;;;;;;5101704;27;20062;-60
2023/08/07 02:50:25;;;;;;;18.42;3.78;;;15.10;99.90;;;;;;5126888;27;20024;-60
2023/08/07 02:52:51;;;;;;;9.75;3.40;;;15.20;99.90;;;;;;5100712;28;20052;-61
2023/08/07 02:55:17;;;;;;;6.85;2.85;;;15.20;99.90;;;;;;5104471;27;20111;-61
2023/08/07 02:57:42;;;;;;;13.32;3.20;;;15.20;99.90;;;;;;5109992;27;20045;-61
2023/08/07 03:00:08;;;;;;;8.15;3.08;;;15.20;99.90;;;;;;5106847;27;20123;-61
2023/08/07 03:02:34;;;;;;;11.60;3.92;;;15.30;99.90;;;;;;5103837;28;20036;-61
2023/08/07 03:05:00;;;;;;;7.95;3.10;;;15.30;99.90;;;;;;5096492;28;20035;-61
2023/08/07 03:07:25;;;;;;;10.05;3.58;;;15.30;99.90;;;;;;5126027;27;20058;-61
2023/08/07 03:09:51;;;;;;;10.85;3.65;;;15.30;99.90;;;;;;5125488;27;20035;-61
2023/08/07 03:12:17;;;;;;;9.30;3.80;;;15.30;99.90;;;;;;5124052;27;20035;-61
2023/08/07 03:14:43;;;;;;;12.27;3.28;;;15.40;99.90;;;;;;5102437;27;20043;-61
2023/08/07 03:17:08;;;;;;;14.40;4.55;;;15.40;99.90;;;;;;5099781;27;20140;-61
2023/08/07 03:19:34;;;;;;;12.93;3.92;;;15.40;99.90;;;;;;5103452;27;20500;-60
2023/08/07 03:22:00;;;;;;;10.98;3.67;;;15.40;99.90;;;;;;5117760;27;20201;-60
2023/08/07 03:24:26;;;;;;;11.48;3.70;;;15.40;99.90;;;;;;5121629;27;20039;-60
2023/08/07 03:26:51;;;;;;;15.32;4.10;;;15.40;99.90;;;;;;5126550;27;20036;-61
2023/08/07 03:29:17;;;;;;;15.98;3.80;;;15.40;99.90;;;;;;5100545;27;20039;-60
2023/08/07 03:31:43;;;;;;;18.00;4.05;;;15.30;99.90;;;;;;5081194;27;20135;-60
2023/08/07 03:34:09;;;;;;;10.30;3.67;;;15.30;99.90;;;;;;5120822;27;20035;-60
2023/08/07 03:36:34;;;;;;;12.90;3.45;;;15.30;99.90;;;;;;5108990;27;20043;-61
2023/08/07 03:39:00;;;;;;;13.02;3.75;;;15.30;99.90;;;;;;5101317;27;20107;-61
2023/08/07 03:41:26;;;;;;;14.00;3.92;;;15.30;99.90;;;;;;5116653;27;20026;-61
2023/08/07 03:43:52;;;;;;;22.15;3.90;;;15.30;99.90;;;;;;5103645;27;20059;-60
2023/08/07 03:46:18;;;;;;;15.50;4.65;;;15.30;99.90;;;;;;5100420;27;20570;-60
2023/08/07 03:48:43;;;;;;;12.93;3.70;;;15.30;99.90;;;;;;5088776;27;20379;-61
2023/08/07 03:51:09;;;;;;;13.90;4.32;;;15.30;99.90;;;;;;5119368;27;20071;-60
2023/08/07 03:53:35;;;;;;;18.55;4.65;;;15.20;99.90;;;;;;5108267;27;20039;-60
2023/08/07 03:56:00;;;;;;;18.95;4.18;;;15.20;99.90;;;;;;5121462;27;20639;-60
2023/08/07 03:58:26;;;;;;;17.88;4.35;;;15.20;99.90;;;;;;5127881;27;20047;-61
2023/08/07 04:00:52;;;;;;;17.27;4.53;;;15.20;99.90;;;;;;5110972;27;20042;-61
2023/08/07 04:03:22;;;;;;;15.00;3.80;;;15.20;99.90;;;;;;5124287;27;20035;-61
2023/08/07 04:05:53;;;;;;;15.20;4.25;;;15.20;99.90;;;;;;5105721;27;20039;-60
2023/08/07 04:08:19;;;;;;;12.07;3.67;;;15.20;99.90;;;;;;5120455;27;20046;-61
2023/08/07 04:10:45;;;;;;;14.20;3.88;;;15.20;99.90;;;;;;5107449;27;20043;-60
2023/08/07 04:13:10;;;;;;;11.27;3.70;;;15.20;99.90;;;;;;5096919;28;20036;-61
2023/08/07 04:15:36;;;;;;;17.23;4.07;;;15.10;99.90;;;;;;5108997;27;20051;-61
2023/08/07 04:18:02;;;;;;;12.75;4.07;;;15.10;99.90;;;;;;5090702;27;20091;-61
2023/08/07 04:20:28;;;;;;;16.13;4.60;;;15.10;99.90;;;;;;5105524;27;20038;-61
2023/08/07 04:22:53;;;;;;;14.40;3.60;;;15.10;99.90;;;;;;5104964;27;20513;-61
2023/08/07 04:25:19;;;;;;;19.00;4.13;;;15.00;99.90;;;;;;5106506;27;20048;-61
2023/08/07 04:27:45;;;;;;;13.25;3.80;;;15.10;99.90;;;;;;5106763;27;21951;-61
2023/08/07 04:30:11;;;;;;;15.88;4.05;;;15.10;99.90;;;;;;5118817;27;20132;-60
2023/08/07 04:32:37;;;;;;;15.48;3.80;;;15.00;99.90;;;;;;5117800;27;20043;-60
2023/08/07 04:35:03;;;;;;;16.08;4.10;;;15.00;99.90;;;;;;5106748;27;20095;-61
2023/08/07 04:37:30;;;;;;;19.15;4.78;;;15.00;99.90;;;;;;5099596;27;20560;-61
2023/08/07 04:39:56;;;;;;;16.33;4.82;;;14.90;99.90;;;;;;5120710;27;20505;-61
2023/08/07 04:42:22;;;;;;;19.30;4.80;;;14.90;99.90;;;;;;5082725;27;20050;-61
2023/08/07 04:44:48;;;;;;;14.02;5.07;;;14.90;99.90;;;;;;5107072;27;20035;-61
2023/08/07 04:47:14;;;;;;;16.05;4.85;;;14.90;99.90;;;;;;5102859;27;20043;-61
2023/08/07 04:49:39;;;;;;;15.13;4.32;;;14.90;99.90;;;;;;5098137;27;20043;-61
2023/08/07 04:52:05;;;;;;;17.42;4.70;;;14.90;99.90;;;;;;5106118;27;20031;-61
2023/08/07 04:54:31;;;;;;;21.65;4.88;;;14.90;99.90;;;;;;5085527;27;20043;-60
2023/08/07 04:56:57;;;;;;;15.68;5.45;;;14.80;99.90;;;;;;5124302;27;20039;-61
2023/08/07 04:59:22;;;;;;;17.33;4.22;;;14.90;99.90;;;;;;5103203;28;20592;-61
2023/08/07 05:01:48;;;;;;;15.43;4.47;;;14.90;99.90;;;;;;5108330;27;20039;-60
2023/08/07 05:04:14;;;;;;;19.13;4.78;;;14.90;99.90;;;;;;5119343;27;20522;-61
2023/08/07 05:06:40;;;;;;;14.93;4.30;;;14.90;99.90;;;;;;5118925;28;20039;-60
2023/08/07 05:09:06;;;;;;;19.00;4.47;;;14.90;99.90;;;;;;5116736;28;20422;-61
2023/08/07 05:11:33;;;;;;;20.88;4.65;;;14.90;99.90;;;;;;5125038;27;20039;-61
2023/08/07 05:13:59;;;;;;;19.65;5.28;;;14.90;99.90;;;;;;5107046;28;20490;-61
2023/08/07 05:16:25;;;;;;;16.52;4.28;;;15.00;99.90;;;;;;5115858;28;20046;-60
2023/08/07 05:18:50;;;;;;;18.15;4.28;;;15.00;99.90;;;;;;5108461;28;20039;-61
2023/08/07 05:21:16;;;;;;;18.23;4.80;;;15.00;99.90;;;;;;5091843;28;20039;-61
2023/08/07 05:23:42;;;;;;;19.88;4.80;;;15.00;99.90;;;;;;5118641;27;20118;-60
2023/08/07 05:26:08;;;;;;;14.45;4.35;;;15.00;99.90;;;;;;5119304;27;20035;-60
2023/08/07 05:28:33;;;;;;;16.08;4.22;;;15.00;99.90;;;;;;5117903;28;20042;-61
2023/08/07 05:30:59;;;;;;;9.77;3.80;;;15.00;99.90;;;;;;5093739;28;20039;-61
2023/08/07 05:33:25;;;;;;;17.95;3.80;;;15.00;99.90;;;;;;5092190;28;20403;-60
2023/08/07 05:35:52;;;;;;;14.18;3.28;;;15.10;99.90;;;;;;5096387;28;20044;-61
2023/08/07 05:38:18;;;;;;;15.93;5.07;;;15.10;99.90;;;;;;5118700;28;20039;-61
2023/08/07 05:40:43;;;;;;;14.95;3.63;;;15.00;99.90;;;;;;5094651;28;20161;-61
2023/08/07 05:43:09;;;;;;;15.93;4.15;;;14.90;99.90;;;;;;5112675;27;20036;-61
2023/08/07 05:45:35;;;;;;;12.93;4.20;;;14.90;99.90;;;;;;5116140;28;20044;-61
2023/08/07 05:48:01;;;;;;;12.30;4.13;;;14.80;99.90;;;;;;5122749;27;20496;-61
2023/08/07 05:50:26;;;;;;;11.93;3.88;;;14.70;99.90;;;;;;5101997;28;20039;-61
2023/08/07 05:52:52;;;;;;;16.73;3.95;;;14.70;99.90;;;;;;5102969;27;20486;-61
2023/08/07 05:55:18;;;;;;;14.20;3.90;;;14.70;99.90;;;;;;5099184;27;20071;-61
2023/08/07 05:57:43;;;;;;;17.67;4.85;;;14.70;99.90;;;;;;5104466;27;20046;-61
2023/08/07 06:00:15;;;;;;;19.30;5.13;;;14.70;99.90;;;;;;5117348;27;20091;-61
2023/08/07 06:02:41;;;;;;;16.02;4.88;;;14.70;99.90;;;;;;5115512;27;20074;-61
2023/08/07 06:05:09;;;;;;;20.45;4.25;;;14.80;99.90;;;;;;5081922;28;20067;-61
2023/08/07 06:07:34;;;;;;;17.67;5.15;;;14.90;99.90;;;;;;5111653;27;20087;-60
2023/08/07 06:10:00;;;;;;;15.52;3.97;;;14.90;99.90;;;;;;5120939;27;20487;-61
2023/08/07 06:12:26;;;;;;;11.75;3.78;;;14.90;99.90;;;;;;5087354;27;20126;-61
2023/08/07 06:14:52;;;;;;;14.93;3.63;;;15.00;99.90;;;;;;5114563;27;20390;-60
2023/08/07 06:17:18;;;;;;;13.75;3.70;;;14.90;99.90;;;;;;5117322;27;20039;-60
2023/08/07 06:19:43;;;;;;;12.63;3.00;;;15.00;99.90;;;;;;5097974;28;20147;-61
2023/08/07 06:22:09;;;;;;;8.55;2.10;;;14.90;99.90;;;;;;5112720;27;20035;-60
2023/08/07 06:24:35;;;;;;;9.93;2.45;;;14.80;99.90;;;;;;5095528;27;20035;-61
2023/08/07 06:27:08;;;;;;;13.20;2.85;;;14.90;99.90;;;;;;5116833;27;20031;-62
2023/08/07 06:29:33;;;;;;;15.57;2.90;;;14.90;99.90;;;;;;5080051;27;20527;-61
2023/08/07 06:31:59;;;;;;;10.20;2.50;;;14.90;99.90;;;;;;5095192;27;20039;-61
2023/08/07 06:34:25;;;;;;;9.80;2.85;;;15.00;99.90;;;;;;5108275;27;20443;-61
2023/08/07 06:36:51;;;;;;;11.23;3.13;;;15.20;99.90;;;;;;5103100;27;20455;-61
2023/08/07 06:39:16;;;;;;;10.65;3.08;;;15.20;99.90;;;;;;5119582;27;20100;-61
2023/08/07 06:41:42;;;;;;;9.18;2.97;;;15.00;99.90;;;;;;5116263;27;20059;-61
2023/08/07 06:44:08;;;;;;;10.43;2.63;;;15.00;99.90;;;;;;5117905;27;20046;-61
2023/08/07 06:46:33;;;;;;;8.18;2.70;;;14.90;99.90;;;;;;5102758;28;20038;-61
2023/08/07 06:48:59;;;;;;;13.30;3.08;;;14.90;99.90;;;;;;5114869;27;20028;-61
2023/08/07 06:51:25;;;;;;;10.07;2.67;;;14.80;99.90;;;;;;5123339;27;20669;-61
2023/08/07 06:53:50;;;;;;;11.20;2.65;;;14.80;99.90;;;;;;5095720;28;20050;-60
2023/08/07 06:56:16;;;;;;;11.65;2.75;;;14.80;99.90;;;;;;5097726;27;20040;-61
2023/08/07 06:58:42;;;;;;;11.68;3.15;;;15.00;99.90;;;;;;5112735;27;20043;-61
2023/08/07 07:01:07;;;;;;;12.65;3.65;;;15.10;99.90;;;;;;5102435;27;20066;-61
2023/08/07 07:03:33;;;;;;;12.30;3.53;;;15.10;99.90;;;;;;5098942;27;20039;-61
2023/08/07 07:05:59;;;;;;;12.35;3.53;;;15.10;99.90;;;;;;5098760;27;20112;-61
2023/08/07 07:08:25;;;;;;;12.70;4.10;;;14.90;99.90;;;;;;5086690;27;20035;-61
2023/08/07 07:10:50;;;;;;;11.85;3.13;;;14.70;99.90;;;;;;5121531;27;20035;-61
2023/08/07 07:13:16;;;;;;;16.65;4.22;;;14.60;99.90;;;;;;5100660;27;20041;-61
2023/08/07 07:15:42;;;;;;;17.27;4.68;;;14.70;99.90;;;;;;5115429;27;20034;-60
2023/08/07 07:18:07;;;;;;;13.65;3.70;;;14.70;99.90;;;;;;5116823;27;20043;-61
2023/08/07 07:20:33;;;;;;;17.42;4.85;;;14.70;99.90;;;;;;5102029;27;20044;-61
2023/08/07 07:22:59;;;;;;;21.25;5.80;;;14.60;99.90;;;;;;5101551;28;20046;-61
2023/08/07 07:25:25;;;;;;;17.75;4.82;;;14.70;99.90;;;;;;5096445;27;20040;-61
2023/08/07 07:27:51;;;;;;;18.20;4.60;;;14.80;99.90;;;;;;5081540;27;20027;-61
2023/08/07 07:30:17;;;;;;;16.27;4.40;;;14.90;99.90;;;;;;5120516;27;20581;-60
2023/08/07 07:32:42;;;;;;;13.32;3.80;;;15.20;99.90;;;;;;5115620;27;20038;-61
2023/08/07 07:35:08;;;;;;;9.88;3.25;;;15.30;99.90;;;;;;5092093;28;20527;-61
2023/08/07 07:37:34;;;;;;;11.27;3.65;;;15.40;99.90;;;;;;5118715;27;20047;-61
2023/08/07 07:40:00;;;;;;;10.43;3.50;;;15.30;99.90;;;;;;5124046;27;20058;-60
2023/08/07 07:42:25;;;;;;;18.33;4.45;;;15.00;99.90;;;;;;5119454;27;20054;-60
2023/08/07 07:44:51;;;;;;;14.60;3.97;;;14.80;99.90;;;;;;5123698;27;20035;-60
2023/08/07 07:47:17;;;;;;;14.40;4.45;;;14.70;99.90;;;;;;5117588;27;20554;-61
2023/08/07 07:49:47;;;;;;;15.00;4.40;;;14.70;99.90;;;;;;5099838;27;20050;-61
2023/08/07 07:52:13;;;;;;;14.00;4.30;;;14.70;99.90;;;;;;5123756;27;20035;-61
2023/08/07 07:54:39;;;;;;;12.57;4.10;;;14.70;99.90;;;;;;5120668;27;20036;-61
2023/08/07 07:57:05;;;;;;;13.25;4.15;;;14.80;99.90;;;;;;5101864;27;20031;-61
2023/08/07 07:59:31;;;;;;;13.88;4.00;;;14.80;99.90;;;;;;5118555;27;20042;-61
2023/08/07 08:01:56;;;;;;;12.82;4.25;;;14.90;99.90;;;;;;5087862;27;20050;-61
2023/08/07 08:04:22;;;;;;;14.23;3.50;;;15.00;99.90;;;;;;5088126;27;20477;-61
2023/08/07 08:06:48;;;;;;;17.15;3.97;;;15.10;99.90;;;;;;5091653;27;20050;-61
2023/08/07 08:09:15;;;;;;;13.90;3.63;;;15.30;99.90;;;;;;5078381;27;20612;-61
2023/08/07 08:11:41;;;;;;;18.30;3.60;;;15.50;99.90;;;;;;5099626;27;20081;-61
2023/08/07 08:14:07;;;;;;;14.02;4.00;;;15.70;99.90;;;;;;5105232;27;20078;-60
2023/08/07 08:16:32;;;;;;;7.55;2.85;;;15.60;99.90;;;;;;5117846;27;20051;-61
2023/08/07 08:18:58;;;;;;;13.95;2.63;;;15.70;99.90;;;;;;5112734;27;20023;-62
2023/08/07 08:21:24;;;;;;;12.15;2.50;;;15.70;99.90;;;;;;5118095;27;20043;-61
2023/08/07 08:23:50;;;;;;;12.02;2.75;;;15.80;99.90;;;;;;5094867;27;20138;-61
2023/08/07 08:26:16;;;;;;;7.00;2.50;;;15.80;99.90;;;;;;5115096;27;20103;-61
2023/08/07 08:28:41;;;;;;;6.35;2.63;;;16.00;99.90;;;;;;5087753;27;20072;-61
2023/08/07 08:31:08;;;;;;;8.52;2.67;;;16.20;99.90;;;;;;5106744;27;20138;-62
2023/08/07 08:33:34;;;;;;;9.15;2.45;;;16.30;99.90;;;;;;5100371;27;20043;-62
2023/08/07 08:36:00;;;;;;;9.80;2.72;;;16.40;99.90;;;;;;5091747;27;20081;-61
2023/08/07 08:38:29;;;;;;;8.85;2.65;;;16.40;99.90;;;;;;5078283;27;20425;-61
2023/08/07 08:40:55;;;;;;;10.55;3.10;;;16.60;99.90;;;;;;5097563;28;20039;-62
2023/08/07 08:43:21;;;;;;;9.35;2.88;;;16.50;99.90;;;;;;5093762;27;20085;-61
2023/08/07 08:45:50;;;;;;;9.20;2.53;;;16.60;99.90;;;;;;5110757;27;20036;-61
2023/08/07 08:48:21;;;;;;;12.52;2.40;;;16.70;99.90;;;;;;5117933;27;20031;-62
2023/08/07 08:50:50;;;;;;;7.35;2.40;;;16.70;99.90;;;;;;5119162;27;20058;-62
2023/08/07 08:53:17;;;;;;;8.18;2.55;;;16.70;99.90;;;;;;5096346;28;20043;-64
2023/08/07 08:55:47;;;;;;;8.02;2.75;;;16.70;99.90;;;;;;5100383;28;20046;-61
2023/08/07 08:58:17;;;;;;;13.30;2.60;;;16.90;99.90;;;;;;5115930;27;20043;-61
2023/08/07 09:00:43;;;;;;;8.32;2.28;;;17.00;99.90;;;;;;5119382;27;20130;-61
2023/08/07 09:03:10;;;;;;;11.77;2.70;;;17.00;99.90;;;;;;5076042;28;20126;-61
2023/08/07 09:05:37;;;;;;;7.85;2.22;;;16.90;99.90;;;;;;5095915;27;20039;-60
2023/08/07 09:08:03;;;;;;;7.25;2.72;;;17.00;99.90;;;;;;5084295;28;20073;-63
2023/08/07 09:10:30;;;;;;;7.05;2.40;;;17.00;99.90;;;;;;5112226;28;20085;-60
2023/08/07 09:13:05;;;;;;;8.52;2.53;;;16.90;99.90;;;;;;5117215;28;20118;-63
2023/08/07 09:15:38;;;;;;;11.93;2.92;;;16.60;99.90;;;;;;5098136;28;20393;-58
2023/08/07 09:18:10;;;;;;;11.38;2.67;;;16.60;99.90;;;;;;5096074;28;20596;-62
2023/08/07 09:20:39;;;;;;;10.07;2.75;;;16.40;99.90;;;;;;5098131;27;20039;-59
2023/08/07 09:23:05;;;;;;;10.57;3.13;;;16.40;99.90;;;;;;5124700;27;20046;-59
2023/08/07 09:25:33;;;;;;;8.10;2.60;;;16.40;99.90;;;;;;5118801;27;20414;-59
2023/08/07 09:28:05;;;;;;;11.65;3.63;;;16.60;99.90;;;;;;5125669;27;20062;-59
2023/08/07 09:30:37;;;;;;;8.05;2.90;;;16.80;99.90;;;;;;5105618;27;20043;-61
2023/08/07 09:33:04;;;;;;;9.55;2.95;;;17.00;99.90;;;;;;5116575;27;20032;-59
2023/08/07 09:35:31;;;;;;;11.07;2.90;;;17.20;99.90;;;;;;5098192;27;20058;-59
2023/08/07 09:37:58;;;;;;;8.98;2.22;;;17.20;99.90;;;;;;5114805;27;20050;-59
2023/08/07 09:40:23;;;;;;;8.77;2.30;;;17.10;99.90;;;;;;5120661;27;20046;-59
2023/08/07 09:42:53;;;;;;;11.40;2.92;;;17.10;99.90;;;;;;5118074;27;20035;-62
2023/08/07 09:45:31;;;;;;;9.38;2.70;;;17.10;99.90;;;;;;5098307;27;20063;-59
2023/08/07 09:47:58;;;;;;;7.68;3.03;;;17.00;99.90;;;;;;5120430;27;20060;-58
2023/08/07 09:50:25;;;;;;;9.10;2.38;;;16.80;99.90;;;;;;5118572;27;20039;-58
2023/08/07 09:52:51;;;;;;;8.45;2.28;;;16.80;99.90;;;;;;5121361;27;20463;-59
2023/08/07 09:55:17;;;;;;;9.40;2.60;;;16.80;99.90;;;;;;5102426;27;20045;-62
2023/08/07 09:57:46;;;;;;;8.52;2.80;;;16.70;99.90;;;;;;5102020;27;20422;-59
2023/08/07 10:00:14;;;;;;;8.70;2.75;;;16.80;99.90;;;;;;5087323;27;20107;-59
2023/08/07 10:02:43;;;;;;;8.98;2.67;;;17.10;99.90;;;;;;5110748;27;20513;-60
2023/08/07 10:05:10;;;;;;;10.38;2.67;;;17.30;99.90;;;;;;5125920;27;20039;-60
2023/08/07 10:07:40;;;;;;;16.63;3.38;;;17.40;99.90;;;;;;5100598;27;20125;-61
2023/08/07 10:10:10;;;;;;;12.90;2.90;;;17.20;99.90;;;;;;5103791;27;20045;-62
2023/08/07 10:12:37;;;;;;;10.20;2.92;;;17.10;99.90;;;;;;5097761;27;20043;-58
2023/08/07 10:15:03;;;;;;;9.35;2.20;;;16.90;99.90;;;;;;5099847;28;20674;-58
2023/08/07 10:17:31;;;;;;;8.32;2.35;;;16.70;99.90;;;;;;5121031;27;20043;-58
2023/08/07 10:19:57;;;;;;;11.60;2.72;;;16.70;99.90;;;;;;5113890;27;20036;-59
2023/08/07 10:22:29;;;;;;;9.48;3.30;;;16.50;99.90;;;;;;5120086;27;20031;-62
2023/08/07 10:24:57;;;;;;;10.18;2.55;;;16.60;99.90;;;;;;5120635;27;20417;-59
2023/08/07 10:27:25;;;;;;;6.70;3.03;;;16.80;99.90;;;;;;5115282;27;20031;-58
2023/08/07 10:29:53;;;;;;;11.40;2.67;;;17.20;99.90;;;;;;5113485;27;20065;-58
2023/08/07 10:32:21;;;;;;;7.35;2.25;;;17.50;99.90;;;;;;5112151;27;20691;-59
2023/08/07 10:34:49;;;;;;;6.07;1.88;;;17.60;99.90;;;;;;5091841;27;20035;-60
2023/08/07 10:37:36;;;;;;;6.07;2.25;;;17.60;99.90;;;;;;5118218;27;20133;-59
2023/08/07 10:40:09;;;;;;;9.15;2.22;;;17.60;99.90;;;;;;5118260;27;20070;-59
2023/08/07 10:42:54;;;;;;;9.50;2.45;;;17.80;99.90;;;;;;5118379;27;20086;-61
2023/08/07 10:45:22;;;;;;;8.98;3.03;;;17.90;99.90;;;;;;5115409;27;20035;-58
2023/08/07 10:48:02;;;;;;;6.25;1.92;;;17.90;99.90;;;;;;5120108;27;20039;-58
2023/08/07 10:50:30;;;;;;;6.22;1.95;;;18.00;99.90;;;;;;5099321;27;20513;-60
2023/08/07 10:52:56;;;;;;;9.27;2.95;;;18.20;99.90;;;;;;5085084;27;20044;-59
2023/08/07 10:55:23;;;;;;;12.35;2.40;;;18.20;99.90;;;;;;5120384;27;20062;-58
2023/08/07 10:57:49;;;;;;;8.27;2.25;;;18.10;99.90;;;;;;5114925;27;20035;-59
2023/08/07 11:00:15;;;;;;;5.88;1.55;;;18.10;99.90;;;;;;5086431;28;20085;-59
2023/08/07 11:02:42;;;;;;;6.15;2.00;;;17.80;99.60;;;;;;5087727;27;20064;-58
2023/08/07 11:05:08;;;;;;;5.00;2.28;;;17.90;99.90;;;;;;5120074;27;20069;-61
2023/08/07 11:07:39;;;;;;;11.55;2.60;;;18.00;99.90;;;;;;5094414;27;20040;-59
2023/08/07 11:10:05;;;;;;;6.90;2.15;;;18.10;99.90;;;;;;5121720;27;20031;-58
2023/08/07 11:12:31;;;;;;;6.88;2.85;;;18.10;99.90;;;;;;5115017;27;20670;-58
2023/08/07 11:14:57;;;;;;;6.60;1.90;;;17.90;99.90;;;;;;5102946;27;20052;-59
2023/08/07 11:17:27;;;;;;;7.50;2.03;;;17.90;99.90;;;;;;5122273;27;20110;-59
2023/08/07 11:19:56;;;;;;;6.65;1.75;;;17.80;99.90;;;;;;5100821;27;20475;-61
2023/08/07 11:22:22;;;;;;;10.77;2.38;;;18.00;99.90;;;;;;5100045;27;20038;-59
2023/08/07 11:24:49;;;;;;;9.63;2.38;;;17.80;99.90;;;;;;5119432;27;20036;-57
2023/08/07 11:27:15;;;;;;;9.60;2.83;;;17.90;99.90;;;;;;5117310;27;20454;-59
2023/08/07 11:29:41;;;;;;;10.45;2.30;;;17.80;99.90;;;;;;5116760;27;20034;-59
2023/08/07 11:32:08;;;;;;;7.93;2.15;;;17.70;99.90;;;;;;5113957;27;20036;-61
2023/08/07 11:34:34;;;;;;;8.68;2.90;;;17.90;99.90;;;;;;5119829;27;20035;-58
2023/08/07 11:37:00;;;;;;;7.15;2.20;;;17.90;99.90;;;;;;5118107;27;20217;-58
2023/08/07 11:39:26;;;;;;;7.25;2.35;;;17.70;99.90;;;;;;5092609;27;20074;-58
2023/08/07 11:41:55;;;;;;;11.85;3.20;;;17.50;99.90;;;;;;5121161;27;20604;-59
2023/08/07 11:44:22;;;;;;;10.43;2.60;;;17.10;99.90;;;;;;5098287;27;20035;-58
2023/08/07 11:46:48;;;;;;;15.65;3.55;;;16.90;99.90;;;;;;5098651;27;20044;-61
2023/08/07 11:49:13;;;;;;;8.77;2.42;;;16.60;99.90;;;;;;5097296;27;20042;-59
2023/08/07 11:51:40;;;;;;;7.53;2.50;;;16.20;99.90;;;;;;5102588;27;20049;-59
2023/08/07 11:54:06;;;;;;;5.55;2.40;;;16.30;99.90;;;;;;5096980;27;20027;-58
2023/08/07 11:56:32;;;;;;;9.10;2.80;;;16.40;99.90;;;;;;5083618;27;20101;-59
2023/08/07 11:58:58;;;;;;;6.53;2.83;;;16.40;99.90;;;;;;5115700;27;20486;-58
2023/08/07 12:01:26;;;;;;;8.00;2.70;;;16.60;99.90;;;;;;5102326;27;20125;-61
2023/08/07 12:04:10;;;;;;;6.07;2.83;;;16.60;99.90;;;;;;5096972;28;20044;-61
2023/08/07 12:06:39;;;;;;;9.15;2.30;;;16.50;99.90;;;;;;5103879;27;20135;-58
2023/08/07 12:09:12;;;;;;;8.38;2.58;;;17.00;99.90;;;;;;5087890;27;20518;-59
2023/08/07 12:11:38;;;;;;;7.88;2.47;;;17.20;99.90;;;;;;5120620;27;20558;-61
2023/08/07 12:14:03;;;;;;;8.15;2.10;;;17.30;99.90;;;;;;5118643;27;20031;-58
2023/08/07 12:16:33;;;;;;;7.72;2.10;;;17.40;99.90;;;;;;5124306;27;20378;-58
2023/08/07 12:18:58;;;;;;;4.03;1.65;;;17.60;99.90;;;;;;5101328;27;20078;-59
2023/08/07 12:21:25;;;;;;;5.45;1.70;;;17.70;99.90;;;;;;5101124;27;20456;-60
2023/08/07 12:23:54;;;;;;;4.72;1.70;;;17.60;99.90;;;;;;5106128;27;20050;-60
2023/08/07 12:26:20;;;;;;;4.45;1.50;;;17.30;99.90;;;;;;5098058;27;20037;-61
2023/08/07 12:28:45;;;;;;;7.80;1.90;;;17.10;99.90;;;;;;5125481;27;20030;-60
2023/08/07 12:31:11;;;;;;;7.25;1.90;;;17.20;99.90;;;;;;5096168;27;20579;-60
2023/08/07 12:33:37;;;;;;;5.55;1.85;;;17.20;99.90;;;;;;5101190;27;20045;-60
2023/08/07 12:36:03;;;;;;;6.57;2.00;;;17.30;99.90;;;;;;5112898;27;20035;-60
2023/08/07 12:38:29;;;;;;;8.18;2.20;;;17.40;99.90;;;;;;5118999;27;20545;-60